sensor_id;sensor_type;location;lat;lon;timestamp;pressure;altitude;pressure_sealevel;temperature;humidity
49949;BME280;35840;45.982;8.890;2022-10-22T00:01:02;98296.53;;;15.11;100.00
49949;BME280;35840;45.982;8.890;2022-10-22T00:03:28;98310.63;;;15.19;100.00
49949;BME280;35840;45.982;8.890;2022-10-22T00:05:55;98303.53;;;15.21;100.00
49949;BME280;35840;45.982;8.890;2022-10-22T00:08:22;98296.75;;;15.20;100.00
49949;BME280;35840;45.982;8.890;2022-10-22T00:10:49;98288.13;;;15.19;100.00
49949;BME280;35840;45.982;8.890;2022-10-22T00:13:15;98280.25;;;15.21;100.00
49949;BME280;35840;45.982;8.890;2022-10-22T00:15:42;98285.53;;;15.19;100.00
49949;BME280;35840;45.982;8.890;2022-10-22T00:18:09;98292.13;;;15.23;100.00
49949;BME280;35840;45.982;8.890;2022-10-22T00:20:36;98282.69;;;15.22;100.00
49949;BME280;35840;45.982;8.890;2022-10-22T00:23:02;98295.53;;;15.24;100.00
49949;BME280;35840;45.982;8.890;2022-10-22T00:25:30;98280.38;;;15.19;100.00
49949;BME280;35840;45.982;8.890;2022-10-22T00:27:56;98272.72;;;15.18;100.00
49949;BME280;35840;45.982;8.890;2022-10-22T00:30:23;98281.91;;;15.22;100.00
49949;BME280;35840;45.982;8.890;2022-10-22T00:32:50;98277.53;;;15.22;100.00
49949;BME280;35840;45.982;8.890;2022-10-22T00:35:16;98274.50;;;15.17;100.00
49949;BME280;35840;45.982;8.890;2022-10-22T00:37:43;98268.88;;;15.12;100.00
49949;BME280;35840;45.982;8.890;2022-10-22T00:40:10;98271.19;;;15.15;100.00
49949;BME280;35840;45.982;8.890;2022-10-22T00:42:37;98267.00;;;15.14;100.00
49949;BME280;35840;45.982;8.890;2022-10-22T00:48:05;98266.31;;;15.01;100.00
49949;BME280;35840;45.982;8.890;2022-10-22T00:53:01;98255.97;;;15.01;100.00
49949;BME280;35840;45.982;8.890;2022-10-22T00:55:30;98254.91;;;15.03;100.00
49949;BME280;35840;45.982;8.890;2022-10-22T00:57:59;98255.84;;;15.02;100.00
49949;BME280;35840;45.982;8.890;2022-10-22T01:00:26;98254.78;;;15.05;100.00
49949;BME280;35840;45.982;8.890;2022-10-22T01:02:54;98265.72;;;15.08;100.00
49949;BME280;35840;45.982;8.890;2022-10-22T01:05:21;98256.84;;;15.11;100.00
49949;BME280;35840;45.982;8.890;2022-10-22T01:07:51;98248.28;;;15.10;100.00
49949;BME280;35840;45.982;8.890;2022-10-22T01:11:20;98268.81;;;15.23;100.00
49949;BME280;35840;45.982;8.890;2022-10-22T01:21:47;98234.75;;;15.28;100.00
49949;BME280;35840;45.982;8.890;2022-10-22T01:30:09;98245.88;;;15.19;100.00
49949;BME280;35840;45.982;8.890;2022-10-22T01:32:46;98251.06;;;15.19;100.00
49949;BME280;35840;45.982;8.890;2022-10-22T01:35:18;98250.22;;;15.18;100.00
49949;BME280;35840;45.982;8.890;2022-10-22T01:37:54;98244.38;;;15.16;100.00
49949;BME280;35840;45.982;8.890;2022-10-22T01:40:24;98250.47;;;15.15;100.00
49949;BME280;35840;45.982;8.890;2022-10-22T01:42:55;98253.31;;;15.12;100.00
49949;BME280;35840;45.982;8.890;2022-10-22T01:45:23;98256.84;;;15.11;100.00
49949;BME280;35840;45.982;8.890;2022-10-22T01:53:16;98234.25;;;15.13;100.00
49949;BME280;35840;45.982;8.890;2022-10-22T02:05:06;98230.84;;;15.12;100.00
49949;BME280;35840;45.982;8.890;2022-10-22T02:07:17;98226.97;;;15.07;100.00
49949;BME280;35840;45.982;8.890;2022-10-22T02:09:44;98238.72;;;15.11;100.00
49949;BME280;35840;45.982;8.890;2022-10-22T02:12:12;98240.25;;;15.13;100.00
49949;BME280;35840;45.982;8.890;2022-10-22T02:14:42;98236.84;;;15.13;100.00
49949;BME280;35840;45.982;8.890;2022-10-22T02:17:14;98227.31;;;15.13;100.00
49949;BME280;35840;45.982;8.890;2022-10-22T02:19:49;98230.16;;;15.10;100.00
49949;BME280;35840;45.982;8.890;2022-10-22T02:22:18;98229.09;;;15.13;100.00
49949;BME280;35840;45.982;8.890;2022-10-22T02:24:46;98225.09;;;15.09;100.00
49949;BME280;35840;45.982;8.890;2022-10-22T02:27:29;98235.28;;;15.22;100.00
49949;BME280;35840;45.982;8.890;2022-10-22T02:30:09;98248.22;;;15.22;100.00
49949;BME280;35840;45.982;8.890;2022-10-22T02:35:18;98245.13;;;15.28;100.00
49949;BME280;35840;45.982;8.890;2022-10-22T02:37:47;98252.72;;;15.20;100.00
49949;BME280;35840;45.982;8.890;2022-10-22T02:40:15;98251.69;;;15.11;100.00
49949;BME280;35840;45.982;8.890;2022-10-22T02:42:42;98248.88;;;15.14;100.00
49949;BME280;35840;45.982;8.890;2022-10-22T02:45:11;98243.56;;;15.15;100.00
49949;BME280;35840;45.982;8.890;2022-10-22T02:47:38;98247.34;;;15.11;100.00
49949;BME280;35840;45.982;8.890;2022-10-22T02:50:05;98251.19;;;15.17;100.00
49949;BME280;35840;45.982;8.890;2022-10-22T02:52:36;98260.59;;;15.18;100.00
49949;BME280;35840;45.982;8.890;2022-10-22T02:55:04;98253.06;;;15.15;100.00
49949;BME280;35840;45.982;8.890;2022-10-22T02:57:32;98242.97;;;15.12;100.00
49949;BME280;35840;45.982;8.890;2022-10-22T02:59:58;98252.38;;;15.13;100.00
49949;BME280;35840;45.982;8.890;2022-10-22T03:02:25;98256.72;;;15.12;100.00
49949;BME280;35840;45.982;8.890;2022-10-22T03:04:52;98251.53;;;15.12;100.00
49949;BME280;35840;45.982;8.890;2022-10-22T03:07:18;98255.22;;;15.10;100.00
49949;BME280;35840;45.982;8.890;2022-10-22T03:09:45;98263.69;;;15.12;100.00
49949;BME280;35840;45.982;8.890;2022-10-22T03:12:12;98260.84;;;15.15;100.00
49949;BME280;35840;45.982;8.890;2022-10-22T03:14:39;98261.91;;;15.12;100.00
49949;BME280;35840;45.982;8.890;2022-10-22T03:17:05;98263.00;;;15.10;100.00
49949;BME280;35840;45.982;8.890;2022-10-22T03:19:32;98260.41;;;15.10;100.00
49949;BME280;35840;45.982;8.890;2022-10-22T03:22:01;98263.69;;;15.12;100.00
49949;BME280;35840;45.982;8.890;2022-10-22T03:24:35;98262.16;;;15.09;100.00
49949;BME280;35840;45.982;8.890;2022-10-22T03:27:02;98261.22;;;15.10;100.00
49949;BME280;35840;45.982;8.890;2022-10-22T03:29:30;98260.03;;;15.14;100.00
49949;BME280;35840;45.982;8.890;2022-10-22T03:31:59;98273.53;;;15.18;100.00
49949;BME280;35840;45.982;8.890;2022-10-22T03:34:28;98266.16;;;15.13;100.00
49949;BME280;35840;45.982;8.890;2022-10-22T03:36:57;98268.59;;;15.15;100.00
49949;BME280;35840;45.982;8.890;2022-10-22T03:39:26;98271.06;;;15.17;100.00
49949;BME280;35840;45.982;8.890;2022-10-22T03:41:54;98279.94;;;15.14;100.00
49949;BME280;35840;45.982;8.890;2022-10-22T03:44:22;98278.28;;;15.13;100.00
49949;BME280;35840;45.982;8.890;2022-10-22T03:46:49;98271.44;;;15.12;100.00
49949;BME280;35840;45.982;8.890;2022-10-22T03:49:16;98273.47;;;15.08;100.00
49949;BME280;35840;45.982;8.890;2022-10-22T03:51:43;98274.28;;;15.09;100.00
49949;BME280;35840;45.982;8.890;2022-10-22T03:54:09;98277.13;;;15.06;100.00
49949;BME280;35840;45.982;8.890;2022-10-22T03:56:36;98289.03;;;15.08;100.00
49949;BME280;35840;45.982;8.890;2022-10-22T03:59:03;98271.97;;;15.06;100.00
49949;BME280;35840;45.982;8.890;2022-10-22T04:01:30;98283.84;;;15.08;100.00
49949;BME280;35840;45.982;8.890;2022-10-22T04:03:57;98291.91;;;15.15;100.00
49949;BME280;35840;45.982;8.890;2022-10-22T04:06:24;98289.44;;;15.13;100.00
49949;BME280;35840;45.982;8.890;2022-10-22T04:08:51;98290.84;;;15.18;100.00
49949;BME280;35840;45.982;8.890;2022-10-22T04:11:17;98280.03;;;15.12;100.00
49949;BME280;35840;45.982;8.890;2022-10-22T04:13:44;98282.41;;;15.15;100.00
49949;BME280;35840;45.982;8.890;2022-10-22T04:16:17;98285.13;;;15.14;100.00
49949;BME280;35840;45.982;8.890;2022-10-22T04:18:45;98285.13;;;15.14;100.00
49949;BME280;35840;45.982;8.890;2022-10-22T04:21:14;98285.13;;;15.14;100.00
49949;BME280;35840;45.982;8.890;2022-10-22T04:23:46;98283.59;;;15.11;100.00
49949;BME280;35840;45.982;8.890;2022-10-22T04:26:14;98287.56;;;15.15;100.00
49949;BME280;35840;45.982;8.890;2022-10-22T04:28:41;98285.66;;;15.18;100.00
49949;BME280;35840;45.982;8.890;2022-10-22T04:31:10;98280.75;;;15.14;100.00
49949;BME280;35840;45.982;8.890;2022-10-22T04:33:37;98284.88;;;15.17;100.00
49949;BME280;35840;45.982;8.890;2022-10-22T04:36:11;98292.25;;;15.22;100.00
49949;BME280;35840;45.982;8.890;2022-10-22T04:38:39;98298.25;;;15.22;100.00
49949;BME280;35840;45.982;8.890;2022-10-22T04:41:18;98295.66;;;15.22;100.00
49949;BME280;35840;45.982;8.890;2022-10-22T04:43:45;98292.38;;;15.20;100.00
49949;BME280;35840;45.982;8.890;2022-10-22T04:46:13;98297.69;;;15.19;100.00
49949;BME280;35840;45.982;8.890;2022-10-22T04:48:41;98297.69;;;15.19;100.00
49949;BME280;35840;45.982;8.890;2022-10-22T04:51:11;98297.81;;;15.17;100.00
49949;BME280;35840;45.982;8.890;2022-10-22T04:53:38;98295.22;;;15.17;100.00
49949;BME280;35840;45.982;8.890;2022-10-22T04:56:13;98296.84;;;15.18;100.00
49949;BME280;35840;45.982;8.890;2022-10-22T04:58:42;98290.97;;;15.16;100.00
49949;BME280;35840;45.982;8.890;2022-10-22T05:01:18;98295.34;;;15.15;100.00
49949;BME280;35840;45.982;8.890;2022-10-22T05:03:46;98293.56;;;15.16;100.00
49949;BME280;35840;45.982;8.890;2022-10-22T05:06:14;98294.50;;;15.15;100.00
49949;BME280;35840;45.982;8.890;2022-10-22T05:08:41;98299.00;;;15.13;100.00
49949;BME280;35840;45.982;8.890;2022-10-22T05:11:13;98296.41;;;15.13;100.00
49949;BME280;35840;45.982;8.890;2022-10-22T05:13:40;98295.56;;;15.12;100.00
49949;BME280;35840;45.982;8.890;2022-10-22T05:16:07;98291.22;;;15.13;100.00
49949;BME280;35840;45.982;8.890;2022-10-22T05:18:37;98290.59;;;15.21;100.00
49949;BME280;35840;45.982;8.890;2022-10-22T05:21:12;98291.31;;;15.23;100.00
49949;BME280;35840;45.982;8.890;2022-10-22T05:23:39;98289.53;;;15.23;100.00
49949;BME280;35840;45.982;8.890;2022-10-22T05:26:08;98292.25;;;15.22;100.00
49949;BME280;35840;45.982;8.890;2022-10-22T05:28:35;98291.31;;;15.23;100.00
49949;BME280;35840;45.982;8.890;2022-10-22T05:31:04;98299.34;;;15.20;100.00
49949;BME280;35840;45.982;8.890;2022-10-22T05:33:32;98304.94;;;15.25;100.00
49949;BME280;35840;45.982;8.890;2022-10-22T05:36:00;98310.47;;;15.31;100.00
49949;BME280;35840;45.982;8.890;2022-10-22T05:38:27;98319.63;;;15.36;100.00
49949;BME280;35840;45.982;8.890;2022-10-22T05:41:05;98319.63;;;15.36;100.00
49949;BME280;35840;45.982;8.890;2022-10-22T05:43:33;98319.63;;;15.36;100.00
49949;BME280;35840;45.982;8.890;2022-10-22T05:46:10;98309.75;;;15.29;100.00
49949;BME280;35840;45.982;8.890;2022-10-22T05:48:37;98322.59;;;15.31;100.00
49949;BME280;35840;45.982;8.890;2022-10-22T05:51:12;98318.50;;;15.28;100.00
49949;BME280;35840;45.982;8.890;2022-10-22T05:53:40;98328.72;;;15.30;100.00
49949;BME280;35840;45.982;8.890;2022-10-22T05:56:15;98326.69;;;15.33;100.00
49949;BME280;35840;45.982;8.890;2022-10-22T05:58:43;98336.81;;;15.37;100.00
49949;BME280;35840;45.982;8.890;2022-10-22T06:01:20;98334.13;;;15.38;100.00
49949;BME280;35840;45.982;8.890;2022-10-22T06:03:48;98342.81;;;15.37;100.00
49949;BME280;35840;45.982;8.890;2022-10-22T06:06:28;98341.03;;;15.38;100.00
49949;BME280;35840;45.982;8.890;2022-10-22T06:09:00;98348.13;;;15.36;100.00
49949;BME280;35840;45.982;8.890;2022-10-22T06:11:27;98349.31;;;15.31;100.00
49949;BME280;35840;45.982;8.890;2022-10-22T06:14:00;98360.75;;;15.29;100.00
49949;BME280;35840;45.982;8.890;2022-10-22T06:16:30;98359.34;;;15.25;100.00
49949;BME280;35840;45.982;8.890;2022-10-22T06:18:58;98357.47;;;15.27;100.00
49949;BME280;35840;45.982;8.890;2022-10-22T06:21:28;98365.81;;;15.19;100.00
49949;BME280;35840;45.982;8.890;2022-10-22T06:23:56;98369.34;;;15.18;100.00
49949;BME280;35840;45.982;8.890;2022-10-22T06:26:23;98371.00;;;15.19;100.00
49949;BME280;35840;45.982;8.890;2022-10-22T06:28:50;98376.91;;;15.21;100.00
49949;BME280;35840;45.982;8.890;2022-10-22T06:31:16;98374.31;;;15.21;100.00
49949;BME280;35840;45.982;8.890;2022-10-22T06:33:43;98380.91;;;15.25;100.00
49949;BME280;35840;45.982;8.890;2022-10-22T06:36:15;98384.19;;;15.27;100.00
49949;BME280;35840;45.982;8.890;2022-10-22T06:38:42;98388.66;;;15.25;100.00
49949;BME280;35840;45.982;8.890;2022-10-22T06:41:14;98393.63;;;15.17;100.00
49949;BME280;35840;45.982;8.890;2022-10-22T06:43:42;98393.38;;;15.20;100.00
49949;BME280;35840;45.982;8.890;2022-10-22T06:46:14;98389.72;;;15.23;100.00
49949;BME280;35840;45.982;8.890;2022-10-22T06:48:56;98399.25;;;15.22;100.00
49949;BME280;35840;45.982;8.890;2022-10-22T06:51:23;98399.13;;;15.24;100.00
49949;BME280;35840;45.982;8.890;2022-10-22T06:53:50;98396.06;;;15.30;100.00
49949;BME280;35840;45.982;8.890;2022-10-22T06:56:19;98405.38;;;15.32;100.00
49949;BME280;35840;45.982;8.890;2022-10-22T06:58:47;98399.38;;;15.21;100.00
49949;BME280;35840;45.982;8.890;2022-10-22T07:01:15;98393.00;;;15.25;100.00
49949;BME280;35840;45.982;8.890;2022-10-22T07:03:43;98398.69;;;15.19;100.00
49949;BME280;35840;45.982;8.890;2022-10-22T07:06:12;98405.44;;;14.98;100.00
49949;BME280;35840;45.982;8.890;2022-10-22T07:08:39;98405.19;;;15.02;100.00
49949;BME280;35840;45.982;8.890;2022-10-22T07:11:08;98407.75;;;15.13;100.00
49949;BME280;35840;45.982;8.890;2022-10-22T07:13:35;98407.25;;;15.19;100.00
49949;BME280;35840;45.982;8.890;2022-10-22T07:16:04;98413.38;;;15.18;100.00
49949;BME280;35840;45.982;8.890;2022-10-22T07:18:31;98421.75;;;15.22;100.00
49949;BME280;35840;45.982;8.890;2022-10-22T07:20:59;98415.50;;;15.24;100.00
49949;BME280;35840;45.982;8.890;2022-10-22T07:23:27;98415.25;;;15.27;100.00
49949;BME280;35840;45.982;8.890;2022-10-22T07:25:54;98410.75;;;15.29;100.00
49949;BME280;35840;45.982;8.890;2022-10-22T07:28:21;98409.81;;;15.30;100.00
49949;BME280;35840;45.982;8.890;2022-10-22T07:30:48;98416.41;;;15.35;100.00
49949;BME280;35840;45.982;8.890;2022-10-22T07:33:15;98421.09;;;15.41;100.00
49949;BME280;35840;45.982;8.890;2022-10-22T07:35:42;98428.88;;;15.41;100.00
49949;BME280;35840;45.982;8.890;2022-10-22T07:38:09;98433.13;;;15.42;100.00
49949;BME280;35840;45.982;8.890;2022-10-22T07:40:36;98434.28;;;15.49;100.00
49949;BME280;35840;45.982;8.890;2022-10-22T07:43:03;98435.94;;;15.50;100.00
49949;BME280;35840;45.982;8.890;2022-10-22T07:45:30;98444.03;;;15.57;100.00
49949;BME280;35840;45.982;8.890;2022-10-22T07:47:56;98444.59;;;15.60;100.00
49949;BME280;35840;45.982;8.890;2022-10-22T07:50:25;98442.72;;;15.62;100.00
49949;BME280;35840;45.982;8.890;2022-10-22T07:52:52;98445.56;;;15.59;100.00
49949;BME280;35840;45.982;8.890;2022-10-22T07:55:22;98444.59;;;15.60;100.00
49949;BME280;35840;45.982;8.890;2022-10-22T07:57:49;98450.75;;;15.59;100.00
49949;BME280;35840;45.982;8.890;2022-10-22T08:00:16;98456.88;;;15.58;100.00
49949;BME280;35840;45.982;8.890;2022-10-22T08:02:48;98460.63;;;15.65;100.00
49949;BME280;35840;45.982;8.890;2022-10-22T08:05:15;98443.06;;;15.58;100.00
49949;BME280;35840;45.982;8.890;2022-10-22T08:07:42;98441.06;;;15.61;100.00
49949;BME280;35840;45.982;8.890;2022-10-22T08:10:10;98440.13;;;15.62;100.00
49949;BME280;35840;45.982;8.890;2022-10-22T08:12:37;98448.84;;;15.61;100.00
49949;BME280;35840;45.982;8.890;2022-10-22T08:15:05;98451.44;;;15.61;100.00
49949;BME280;35840;45.982;8.890;2022-10-22T08:17:32;98460.03;;;15.62;100.00
49949;BME280;35840;45.982;8.890;2022-10-22T08:19:59;98467.94;;;15.60;100.00
49949;BME280;35840;45.982;8.890;2022-10-22T08:22:26;98471.38;;;15.61;100.00
49949;BME280;35840;45.982;8.890;2022-10-22T08:24:52;98472.88;;;15.63;100.00
49949;BME280;35840;45.982;8.890;2022-10-22T08:27:19;98470.63;;;15.70;100.00
49949;BME280;35840;45.982;8.890;2022-10-22T08:29:46;98474.25;;;15.67;100.00
49949;BME280;35840;45.982;8.890;2022-10-22T08:32:13;98476.84;;;15.67;100.00
49949;BME280;35840;45.982;8.890;2022-10-22T08:34:40;98484.41;;;15.71;100.00
49949;BME280;35840;45.982;8.890;2022-10-22T08:37:06;98486.03;;;15.72;100.00
49949;BME280;35840;45.982;8.890;2022-10-22T08:39:34;98486.41;;;15.67;100.00
49949;BME280;35840;45.982;8.890;2022-10-22T08:47:50;98507.16;;;15.67;100.00
49949;BME280;35840;45.982;8.890;2022-10-22T08:50:28;98500.06;;;15.69;100.00
49949;BME280;35840;45.982;8.890;2022-10-22T08:53:02;98489.13;;;15.65;100.00
49949;BME280;35840;45.982;8.890;2022-10-22T08:55:32;98493.69;;;15.73;100.00
49949;BME280;35840;45.982;8.890;2022-10-22T09:06:15;98496.28;;;15.84;100.00
49949;BME280;35840;45.982;8.890;2022-10-22T09:08:45;98498.53;;;15.89;100.00
49949;BME280;35840;45.982;8.890;2022-10-22T09:11:23;98493.34;;;15.89;100.00
49949;BME280;35840;45.982;8.890;2022-10-22T09:13:53;98483.41;;;15.94;100.00
49949;BME280;35840;45.982;8.890;2022-10-22T09:24:55;98500.13;;;16.01;100.00
49949;BME280;35840;45.982;8.890;2022-10-22T09:27:29;98496.78;;;16.11;100.00
49949;BME280;35840;45.982;8.890;2022-10-22T09:29:56;98501.72;;;16.14;100.00
49949;BME280;35840;45.982;8.890;2022-10-22T09:32:24;98502.75;;;16.23;100.00
49949;BME280;35840;45.982;8.890;2022-10-22T09:34:54;98508.13;;;16.31;100.00
49949;BME280;35840;45.982;8.890;2022-10-22T09:37:25;98514.31;;;16.40;100.00
49949;BME280;35840;45.982;8.890;2022-10-22T09:39:54;98518.19;;;16.45;100.00
49949;BME280;35840;45.982;8.890;2022-10-22T09:42:22;98518.97;;;16.36;100.00
49949;BME280;35840;45.982;8.890;2022-10-22T09:44:54;98527.75;;;16.45;100.00
49949;BME280;35840;45.982;8.890;2022-10-22T09:50:28;98512.63;;;16.50;100.00
49949;BME280;35840;45.982;8.890;2022-10-22T09:55:38;98523.19;;;16.58;100.00
49949;BME280;35840;45.982;8.890;2022-10-22T09:58:11;98523.06;;;16.60;100.00
49949;BME280;35840;45.982;8.890;2022-10-22T10:00:40;98530.03;;;16.59;100.00
49949;BME280;35840;45.982;8.890;2022-10-22T10:03:16;98527.13;;;16.52;100.00
49949;BME280;35840;45.982;8.890;2022-10-22T10:05:47;98522.63;;;16.55;100.00
49949;BME280;35840;45.982;8.890;2022-10-22T10:08:16;98527.91;;;16.64;100.00
49949;BME280;35840;45.982;8.890;2022-10-22T10:10:52;98527.63;;;16.67;100.00
49949;BME280;35840;45.982;8.890;2022-10-22T10:16:11;98533.25;;;16.73;100.00
49949;BME280;35840;45.982;8.890;2022-10-22T10:21:17;98518.94;;;16.78;100.00
49949;BME280;35840;45.982;8.890;2022-10-22T10:24:09;98526.16;;;16.75;100.00
49949;BME280;35840;45.982;8.890;2022-10-22T10:26:42;98525.72;;;16.69;100.00
49949;BME280;35840;45.982;8.890;2022-10-22T10:29:21;98524.09;;;16.68;100.00
49949;BME280;35840;45.982;8.890;2022-10-22T10:32:20;98526.91;;;16.65;100.00
49949;BME280;35840;45.982;8.890;2022-10-22T10:37:34;98527.50;;;16.69;100.00
49949;BME280;35840;45.982;8.890;2022-10-22T10:42:47;98532.75;;;16.79;100.00
49949;BME280;35840;45.982;8.890;2022-10-22T10:45:39;98535.22;;;16.80;100.00
49949;BME280;35840;45.982;8.890;2022-10-22T10:51:44;98540.63;;;16.89;100.00
49949;BME280;35840;45.982;8.890;2022-10-22T10:57:38;98525.72;;;16.91;100.00
49949;BME280;35840;45.982;8.890;2022-10-22T11:00:19;98536.34;;;16.87;100.00
49949;BME280;35840;45.982;8.890;2022-10-22T11:05:51;98532.44;;;16.93;100.00
49949;BME280;35840;45.982;8.890;2022-10-22T11:08:23;98529.03;;;16.93;100.00
49949;BME280;35840;45.982;8.890;2022-10-22T11:10:58;98519.19;;;16.96;98.95
49949;BME280;35840;45.982;8.890;2022-10-22T11:13:33;98532.91;;;16.98;97.47
49949;BME280;35840;45.982;8.890;2022-10-22T11:16:10;98533.72;;;16.99;98.91
49949;BME280;35840;45.982;8.890;2022-10-22T11:18:43;98523.44;;;16.97;98.45
49949;BME280;35840;45.982;8.890;2022-10-22T11:21:26;98526.03;;;16.97;97.85
49949;BME280;35840;45.982;8.890;2022-10-22T11:28:57;98529.38;;;17.09;98.41
49949;BME280;35840;45.982;8.890;2022-10-22T11:31:29;98524.56;;;17.04;97.40
49949;BME280;35840;45.982;8.890;2022-10-22T11:34:06;98527.16;;;17.04;97.62
49949;BME280;35840;45.982;8.890;2022-10-22T11:36:57;98528.97;;;17.04;98.06
49949;BME280;35840;45.982;8.890;2022-10-22T11:39:44;98526.91;;;17.08;99.20
49949;BME280;35840;45.982;8.890;2022-10-22T11:42:19;98525.03;;;17.10;98.40
49949;BME280;35840;45.982;8.890;2022-10-22T11:50:27;98522.06;;;17.24;96.39
49949;BME280;35840;45.982;8.890;2022-10-22T11:55:52;98515.66;;;17.28;95.71
49949;BME280;35840;45.982;8.890;2022-10-22T12:16:15;98520.81;;;17.79;90.14
49949;BME280;35840;45.982;8.890;2022-10-22T12:19:11;98515.63;;;17.79;89.29
49949;BME280;35840;45.982;8.890;2022-10-22T12:21:41;98510.28;;;17.90;89.74
49949;BME280;35840;45.982;8.890;2022-10-22T12:24:13;98517.31;;;17.99;89.33
49949;BME280;35840;45.982;8.890;2022-10-22T12:26:41;98515.81;;;17.97;87.79
49949;BME280;35840;45.982;8.890;2022-10-22T12:29:14;98516.47;;;17.89;85.33
49949;BME280;35840;45.982;8.890;2022-10-22T12:31:43;98512.09;;;17.89;85.70
49949;BME280;35840;45.982;8.890;2022-10-22T12:34:15;98516.59;;;17.87;87.98
49949;BME280;35840;45.982;8.890;2022-10-22T12:36:43;98508.00;;;17.97;87.03
49949;BME280;35840;45.982;8.890;2022-10-22T12:39:14;98508.44;;;17.92;87.08
49949;BME280;35840;45.982;8.890;2022-10-22T12:41:42;98500.88;;;17.99;84.81
49949;BME280;35840;45.982;8.890;2022-10-22T12:44:11;98499.41;;;17.96;85.18
49949;BME280;35840;45.982;8.890;2022-10-22T12:46:40;98491.72;;;17.95;85.82
49949;BME280;35840;45.982;8.890;2022-10-22T12:49:13;98493.22;;;17.97;84.01
49949;BME280;35840;45.982;8.890;2022-10-22T12:51:41;98493.63;;;18.02;82.87
49949;BME280;35840;45.982;8.890;2022-10-22T12:54:15;98487.75;;;18.00;81.85
49949;BME280;35840;45.982;8.890;2022-10-22T12:56:43;98485.69;;;18.04;80.21
49949;BME280;35840;45.982;8.890;2022-10-22T12:59:19;98489.00;;;18.06;79.79
49949;BME280;35840;45.982;8.890;2022-10-22T13:01:48;98484.31;;;18.00;79.39
49949;BME280;35840;45.982;8.890;2022-10-22T13:06:44;98488.16;;;18.05;80.12
49949;BME280;35840;45.982;8.890;2022-10-22T13:09:19;98487.88;;;18.09;80.09
49949;BME280;35840;45.982;8.890;2022-10-22T13:11:53;98485.25;;;18.18;79.99
49949;BME280;35840;45.982;8.890;2022-10-22T13:14:27;98490.88;;;18.14;78.76
49949;BME280;35840;45.982;8.890;2022-10-22T13:17:16;98481.03;;;18.17;78.78
49949;BME280;35840;45.982;8.890;2022-10-22T13:22:37;98482.66;;;18.18;79.56
49949;BME280;35840;45.982;8.890;2022-10-22T13:30:35;98481.44;;;18.22;78.98
49949;BME280;35840;45.982;8.890;2022-10-22T13:33:17;98482.53;;;18.20;79.64
49949;BME280;35840;45.982;8.890;2022-10-22T13:35:48;98482.66;;;18.28;77.66
49949;BME280;35840;45.982;8.890;2022-10-22T13:38:18;98481.72;;;18.29;78.45
49949;BME280;35840;45.982;8.890;2022-10-22T13:40:46;98480.31;;;18.35;77.73
49949;BME280;35840;45.982;8.890;2022-10-22T13:43:13;98485.53;;;18.45;76.92
49949;BME280;35840;45.982;8.890;2022-10-22T13:45:39;98487.97;;;18.46;76.43
49949;BME280;35840;45.982;8.890;2022-10-22T13:48:17;98485.38;;;18.46;74.88
49949;BME280;35840;45.982;8.890;2022-10-22T13:50:48;98493.97;;;18.56;74.84
49949;BME280;35840;45.982;8.890;2022-10-22T13:53:18;98487.53;;;18.61;74.98
49949;BME280;35840;45.982;8.890;2022-10-22T13:55:46;98485.97;;;18.78;74.98
49949;BME280;35840;45.982;8.890;2022-10-22T13:58:15;98482.66;;;18.85;73.87
49949;BME280;35840;45.982;8.890;2022-10-22T14:00:47;98482.66;;;18.95;72.89
49949;BME280;35840;45.982;8.890;2022-10-22T14:03:16;98485.41;;;18.93;72.22
49949;BME280;35840;45.982;8.890;2022-10-22T14:05:45;98490.53;;;19.13;74.68
49949;BME280;35840;45.982;8.890;2022-10-22T14:08:14;98489.00;;;19.20;74.65
49949;BME280;35840;45.982;8.890;2022-10-22T14:10:42;98488.28;;;19.28;75.03
49949;BME280;35840;45.982;8.890;2022-10-22T14:13:10;98484.44;;;19.32;72.63
49949;BME280;35840;45.982;8.890;2022-10-22T14:15:37;98483.13;;;19.18;72.10
49949;BME280;35840;45.982;8.890;2022-10-22T14:18:05;98487.59;;;19.26;72.34
49949;BME280;35840;45.982;8.890;2022-10-22T14:20:36;98495.06;;;19.39;74.28
49949;BME280;35840;45.982;8.890;2022-10-22T14:23:18;98499.41;;;19.48;73.17
49949;BME280;35840;45.982;8.890;2022-10-22T14:25:45;98498.03;;;19.54;73.05
49949;BME280;35840;45.982;8.890;2022-10-22T14:28:12;98495.13;;;19.57;71.89
49949;BME280;35840;45.982;8.890;2022-10-22T14:30:40;98490.56;;;19.59;71.87
49949;BME280;35840;45.982;8.890;2022-10-22T14:33:30;98499.38;;;19.58;72.54
49949;BME280;35840;45.982;8.890;2022-10-22T14:35:59;98501.28;;;19.56;72.13
49949;BME280;35840;45.982;8.890;2022-10-22T14:38:26;98499.53;;;19.56;71.52
49949;BME280;35840;45.982;8.890;2022-10-22T14:40:53;98499.66;;;19.55;72.87
49949;BME280;35840;45.982;8.890;2022-10-22T14:43:26;98506.00;;;19.52;73.60
49949;BME280;35840;45.982;8.890;2022-10-22T14:45:53;98507.59;;;19.53;72.81
49949;BME280;35840;45.982;8.890;2022-10-22T14:48:20;98505.09;;;19.43;72.40
49949;BME280;35840;45.982;8.890;2022-10-22T14:50:47;98503.59;;;19.41;72.70
49949;BME280;35840;45.982;8.890;2022-10-22T14:53:15;98510.16;;;19.45;74.41
49949;BME280;35840;45.982;8.890;2022-10-22T14:55:43;98516.97;;;19.46;74.07
49949;BME280;35840;45.982;8.890;2022-10-22T14:58:10;98515.78;;;19.40;74.08
49949;BME280;35840;45.982;8.890;2022-10-22T15:00:40;98511.41;;;19.41;74.83
49949;BME280;35840;45.982;8.890;2022-10-22T15:03:07;98517.88;;;19.37;74.93
49949;BME280;35840;45.982;8.890;2022-10-22T15:05:35;98515.72;;;19.32;75.18
49949;BME280;35840;45.982;8.890;2022-10-22T15:08:02;98520.91;;;19.32;75.11
49949;BME280;35840;45.982;8.890;2022-10-22T15:10:28;98527.38;;;19.28;75.47
49949;BME280;35840;45.982;8.890;2022-10-22T15:12:55;98529.69;;;19.31;76.02
49949;BME280;35840;45.982;8.890;2022-10-22T15:15:22;98532.59;;;19.28;76.70